Time;durP1;ratioP1;P1;durP2;ratioP2;P2;SDS_P1;SDS_P2;PMS_P1;PMS_P2;Temp;Humidity;BMP_temperature;BMP_pressure;BME280_temperature;BME280_humidity;BME280_pressure;Samples;Min_cycle;Max_cycle;Signal;HPM_P1;HPM_P2
2022/04/18 00:00:55;;;;;;;14.10;6.90;;;;;;;-0.30;84.03;100804.65;104643;1274;72141;-61
2022/04/18 00:03:43;;;;;;;16.00;6.60;;;;;;;-0.30;84.16;100803.24;104676;1274;68142;-61
2022/04/18 00:06:35;;;;;;;15.20;6.30;;;;;;;-0.31;83.89;100799.43;104860;1274;73739;-62
2022/04/18 00:09:23;;;;;;;13.40;6.00;;;;;;;-0.34;84.16;100794.77;104987;1274;60453;-62
2022/04/18 00:12:12;;;;;;;13.10;6.50;;;;;;;-0.36;84.50;100794.48;104728;1274;60475;-62
2022/04/18 00:14:59;;;;;;;13.20;6.00;;;;;;;-0.38;84.43;100792.42;104543;1274;75505;-63
2022/04/18 00:17:47;;;;;;;13.40;6.00;;;;;;;-0.42;84.62;100789.87;104725;1274;65957;-62
2022/04/18 00:20:35;;;;;;;12.80;6.40;;;;;;;-0.44;84.95;100788.20;104727;1274;72523;-62
2022/04/18 00:23:23;;;;;;;12.70;5.50;;;;;;;-0.48;84.91;100785.83;104731;1274;60525;-61
2022/04/18 00:26:12;;;;;;;13.30;5.80;;;;;;;-0.51;85.24;100783.98;104779;1274;60481;-63
2022/04/18 00:29:00;;;;;;;17.10;6.70;;;;;;;-0.54;85.42;100778.44;104730;1274;74297;-65
2022/04/18 00:31:48;;;;;;;17.40;7.30;;;;;;;-0.54;85.70;100779.33;104889;1274;68163;-61
2022/04/18 00:34:36;;;;;;;12.30;5.80;;;;;;;-0.55;85.58;100774.63;104764;1274;72279;-63
2022/04/18 00:37:24;;;;;;;11.60;5.00;;;;;;;-0.54;85.73;100775.30;104688;1274;60573;-63
2022/04/18 00:40:12;;;;;;;11.50;5.10;;;;;;;-0.52;86.06;100771.26;104698;1274;60513;-61
2022/04/18 00:43:06;;;;;;;11.50;5.20;;;;;;;-0.48;86.47;100773.10;104570;1274;75487;-62
2022/04/18 00:45:54;;;;;;;11.80;4.70;;;;;;;-0.45;86.73;100772.16;104746;1274;68247;-62
2022/04/18 00:48:43;;;;;;;13.70;4.90;;;;;;;-0.42;86.47;100773.16;104285;1274;1003774;-62
2022/04/18 00:51:31;;;;;;;12.00;4.90;;;;;;;-0.40;86.40;100769.62;104674;1274;60447;-64
2022/04/18 00:54:19;;;;;;;11.60;4.90;;;;;;;-0.40;86.43;100765.77;104671;1274;60589;-62
2022/04/18 00:57:09;;;;;;;11.90;4.70;;;;;;;-0.41;86.70;100761.95;103965;1274;1003634;-62
2022/04/18 00:59:57;;;;;;;10.40;4.60;;;;;;;-0.41;86.43;100762.32;104664;1274;69603;-61
2022/04/18 01:02:46;;;;;;;12.00;5.00;;;;;;;-0.44;86.29;100759.05;104721;1274;74387;-61
2022/04/18 01:05:34;;;;;;;12.40;5.10;;;;;;;-0.46;86.37;100756.67;104844;1274;60558;-62
2022/04/18 01:08:25;;;;;;;15.40;5.40;;;;;;;-0.47;86.64;100755.29;104746;1274;62626;-60
2022/04/18 01:11:14;;;;;;;11.40;5.10;;;;;;;-0.48;86.84;100753.91;104711;1274;73306;-61
2022/04/18 01:14:20;;;;;;;11.80;4.70;;;;;;;-0.47;86.89;100756.68;104854;1274;68841;-62
2022/04/18 01:17:12;;;;;;;11.50;4.60;;;;;;;-0.43;87.42;100761.14;104408;1274;71960;-64
2022/04/18 01:20:34;;;;;;;10.30;4.10;;;;;;;-0.39;87.20;100756.70;104956;1274;60971;-64
2022/04/18 01:23:33;;;;;;;12.20;4.10;;;;;;;-0.39;86.76;100753.55;104639;1274;60349;-64
2022/04/18 01:29:34;;;;;;;10.70;4.50;;;;;;;-0.40;86.77;100750.45;104867;1274;65908;-64
2022/04/18 01:32:22;;;;;;;11.70;4.50;;;;;;;-0.43;86.44;100752.42;104867;1274;74327;-63
2022/04/18 01:35:10;;;;;;;13.20;4.80;;;;;;;-0.46;86.44;100749.52;104893;1274;60657;-64
2022/04/18 01:37:58;;;;;;;11.60;4.60;;;;;;;-0.48;86.72;100750.08;104677;1274;60503;-63
2022/04/18 01:40:46;;;;;;;10.00;4.00;;;;;;;-0.49;86.94;100751.69;103944;1274;1002583;-60
2022/04/18 01:43:34;;;;;;;12.10;4.40;;;;;;;-0.50;86.82;100749.77;104771;1275;68424;-62
2022/04/18 01:46:23;;;;;;;9.10;3.20;;;;;;;-0.49;87.00;100747.85;104832;1274;74394;-61
2022/04/18 01:49:11;;;;;;;8.30;3.00;;;;;;;-0.46;87.27;100744.30;104691;1274;60560;-61
2022/04/18 01:51:59;;;;;;;9.30;3.40;;;;;;;-0.43;87.43;100746.83;103990;1274;1002681;-62
2022/04/18 01:54:47;;;;;;;8.50;3.10;;;;;;;-0.38;87.65;100742.89;104768;1274;75816;-60
2022/04/18 01:57:37;;;;;;;8.10;3.00;;;;;;;-0.34;87.49;100742.11;104772;1274;67009;-61
2022/04/18 02:00:25;;;;;;;8.50;3.20;;;;;;;-0.33;87.55;100737.73;104697;1275;73319;-62
2022/04/18 02:03:13;;;;;;;8.00;2.90;;;;;;;-0.34;87.36;100734.44;104714;1274;60660;-63
2022/04/18 02:06:03;;;;;;;7.20;2.80;;;;;;;-0.36;87.54;100735.17;104713;1274;60563;-65
2022/04/18 02:08:51;;;;;;;8.90;3.50;;;;;;;-0.39;87.46;100734.03;104917;1274;74177;-61
2022/04/18 02:11:42;;;;;;;8.60;3.50;;;;;;;-0.42;87.71;100732.86;104661;1274;68581;-61
2022/04/18 02:14:30;;;;;;;9.70;3.20;;;;;;;-0.43;87.65;100732.02;104866;1274;72539;-62
2022/04/18 02:17:18;;;;;;;8.40;2.90;;;;;;;-0.43;87.89;100727.84;104867;1274;61127;-61
2022/04/18 02:20:11;;;;;;;9.00;2.70;;;;;;;-0.42;88.18;100725.02;104753;1274;61027;-62
2022/04/18 02:22:59;;;;;;;7.50;2.80;;;;;;;-0.41;88.43;100725.34;104945;1274;74529;-66
2022/04/18 02:25:47;;;;;;;7.70;2.70;;;;;;;-0.39;88.79;100725.82;105147;1274;68663;-63
2022/04/18 02:28:35;;;;;;;7.20;2.80;;;;;;;-0.37;88.76;100722.29;104734;1274;72263;-61
2022/04/18 02:31:26;;;;;;;8.00;2.50;;;;;;;-0.36;88.90;100716.34;104705;1274;60585;-63
2022/04/18 02:34:14;;;;;;;8.40;2.70;;;;;;;-0.35;89.05;100716.49;104766;1274;60474;-64
2022/04/18 02:37:02;;;;;;;7.10;2.70;;;;;;;-0.34;89.16;100710.73;104997;1274;75088;-61
2022/04/18 02:39:54;;;;;;;8.30;2.70;;;;;;;-0.35;89.12;100709.88;104695;1274;67968;-63
2022/04/18 02:42:42;;;;;;;7.60;2.80;;;;;;;-0.38;89.17;100705.22;103227;1274;1002973;-61
2022/04/18 02:45:32;;;;;;;7.30;3.00;;;;;;;-0.40;89.10;100707.89;104519;1275;60593;-62
2022/04/18 02:48:31;;;;;;;9.80;3.50;;;;;;;-0.42;89.27;100705.30;104932;1274;61907;-63
2022/04/18 02:51:27;;;;;;;9.50;2.70;;;;;;;-0.41;89.61;100703.38;104879;1274;74697;-61
2022/04/18 02:54:17;;;;;;;7.70;3.00;;;;;;;-0.40;89.75;100700.57;104828;1274;68490;-62
2022/04/18 02:57:05;;;;;;;9.80;3.20;;;;;;;-0.39;90.26;100698.45;104701;1274;72692;-60
2022/04/18 02:59:54;;;;;;;8.80;2.90;;;;;;;-0.36;90.28;100697.86;104914;1274;60461;-62
2022/04/18 03:02:42;;;;;;;6.90;2.60;;;;;;;-0.34;90.23;100699.40;104516;1275;61485;-62
2022/04/18 03:05:30;;;;;;;6.90;2.60;;;;;;;-0.33;90.11;100697.63;104800;1274;75390;-64
2022/04/18 03:08:18;;;;;;;8.30;2.70;;;;;;;-0.33;90.04;100697.27;103998;1274;1003483;-62
2022/04/18 03:11:07;;;;;;;8.30;2.90;;;;;;;-0.33;90.23;100696.76;104711;1274;74068;-63
2022/04/18 03:13:59;;;;;;;8.00;2.80;;;;;;;-0.32;90.39;100698.82;104163;1274;1002999;-63
2022/04/18 03:17:00;;;;;;;8.20;3.20;;;;;;;-0.34;90.18;100691.55;104154;1274;1003711;-61
2022/04/18 03:19:49;;;;;;;8.60;3.00;;;;;;;-0.36;90.23;100693.14;104515;1274;74428;-62
2022/04/18 03:22:37;;;;;;;7.40;2.70;;;;;;;-0.37;90.16;100691.44;104627;1274;69681;-63
2022/04/18 03:25:28;;;;;;;7.70;3.10;;;;;;;-0.37;90.07;100684.11;104674;1275;74888;-70
2022/04/18 03:28:16;;;;;;;7.50;3.00;;;;;;;-0.37;90.22;100684.80;104680;1274;60560;-61
2022/04/18 03:31:04;;;;;;;8.10;3.00;;;;;;;-0.36;90.61;100681.13;104962;1274;60464;-63
2022/04/18 03:33:52;;;;;;;8.50;3.00;;;;;;;-0.35;90.59;100685.12;104672;1274;74710;-63
2022/04/18 03:39:50;;;;;;;9.80;3.40;;;;;;;-0.33;90.71;100686.81;104717;1274;74370;-63
2022/04/18 03:42:40;;;;;;;7.70;3.00;;;;;;;-0.31;90.86;100686.77;104765;1274;60484;-63
2022/04/18 03:45:31;;;;;;;7.60;3.30;;;;;;;-0.32;90.64;100688.70;105122;1275;60404;-63
2022/04/18 03:48:19;;;;;;;9.00;3.50;;;;;;;-0.34;90.44;100686.30;103896;1274;1002925;-64
2022/04/18 03:51:07;;;;;;;8.20;3.40;;;;;;;-0.34;90.52;100683.70;104551;1275;67026;-63
2022/04/18 03:53:55;;;;;;;9.30;3.30;;;;;;;-0.33;90.60;100681.94;104780;1274;73801;-63
2022/04/18 03:56:44;;;;;;;8.70;3.20;;;;;;;-0.31;91.13;100678.39;104649;1274;60574;-64
2022/04/18 03:59:55;;;;;;;8.90;3.00;;;;;;;-0.24;91.42;100684.52;104529;1274;60442;-63
2022/04/18 04:02:45;;;;;;;8.20;3.10;;;;;;;-0.19;91.65;100682.81;104578;1274;73794;-65
2022/04/18 04:05:38;;;;;;;8.20;2.70;;;;;;;-0.12;91.71;100682.33;104630;1274;67765;-64
2022/04/18 04:08:28;;;;;;;7.50;2.70;;;;;;;-0.07;91.64;100682.18;104638;1274;73219;-63
2022/04/18 04:11:21;;;;;;;7.10;3.00;;;;;;;-0.01;91.69;100680.32;104851;1274;60456;-64
2022/04/18 04:14:09;;;;;;;7.80;2.80;;;;;;;0.04;91.65;100679.66;104320;1274;1003495;-65
2022/04/18 04:16:57;;;;;;;7.70;2.80;;;;;;;0.08;91.65;100679.57;104575;1275;75817;-64
2022/04/18 04:19:45;;;;;;;8.40;3.20;;;;;;;0.13;91.71;100679.95;104095;1274;1003857;-66
2022/04/18 04:22:48;;;;;;;9.40;3.60;;;;;;;0.19;91.85;100678.09;103915;1274;1002997;-64
2022/04/18 04:25:53;;;;;;;8.90;3.50;;;;;;;0.25;92.00;100673.91;105009;1274;60617;-66
2022/04/18 04:28:46;;;;;;;7.90;3.00;;;;;;;0.31;92.16;100672.36;105030;1274;62210;-66
2022/04/18 04:31:39;;;;;;;9.10;3.40;;;;;;;0.40;92.13;100673.73;104608;1274;75018;-65
2022/04/18 04:34:26;;;;;;;7.50;3.00;;;;;;;0.50;92.38;100672.21;104774;1274;69141;-65
2022/04/18 04:37:37;;;;;;;8.10;2.90;;;;;;;0.62;92.28;100668.23;104799;1274;72401;-65
2022/04/18 04:40:38;;;;;;;7.40;2.80;;;;;;;0.72;92.31;100664.49;104561;1275;60609;-65
2022/04/18 04:43:28;;;;;;;8.80;3.00;;;;;;;0.82;92.27;100668.92;104592;1274;61853;-65
2022/04/18 04:46:19;;;;;;;9.70;2.80;;;;;;;0.89;91.90;100666.98;104610;1275;73387;-67
2022/04/18 04:49:13;;;;;;;8.70;3.20;;;;;;;0.97;91.97;100667.45;104614;1274;69185;-65
2022/04/18 04:52:08;;;;;;;8.40;3.40;;;;;;;1.05;91.87;100664.96;104450;1274;72066;-65
2022/04/18 04:54:57;;;;;;;10.50;3.80;;;;;;;1.12;91.48;100665.64;104871;1274;60331;-63
2022/04/18 04:57:56;;;;;;;9.10;3.30;;;;;;;1.19;91.55;100660.53;104712;1274;62048;-63
2022/04/18 05:01:07;;;;;;;8.40;3.50;;;;;;;1.30;91.70;100656.55;104839;1275;76472;-65
2022/04/18 05:04:01;;;;;;;8.70;3.20;;;;;;;1.41;91.81;100655.34;104474;1275;68731;-64
2022/04/18 05:06:48;;;;;;;10.00;4.20;;;;;;;1.54;92.00;100661.94;104632;1275;72210;-65
2022/04/18 05:09:43;;;;;;;8.50;2.90;;;;;;;1.66;91.69;100660.34;104597;1275;60536;-66
2022/04/18 05:12:32;;;;;;;8.30;3.00;;;;;;;1.77;91.34;100661.23;104632;1274;60356;-64
2022/04/18 05:15:20;;;;;;;9.80;3.00;;;;;;;1.87;91.24;100665.10;104608;1274;74444;-64
2022/04/18 05:18:40;;;;;;;10.40;4.00;;;;;;;2.01;91.09;100661.84;104984;1274;68224;-66
2022/04/18 05:21:29;;;;;;;10.20;4.50;;;;;;;2.13;90.85;100664.99;104837;1273;73670;-65
2022/04/18 05:24:21;;;;;;;9.30;3.90;;;;;;;2.25;90.62;100663.19;104601;1274;60566;-65
2022/04/18 05:27:15;;;;;;;10.40;4.10;;;;;;;2.36;90.16;100661.41;104670;1274;60493;-67
2022/04/18 05:30:06;;;;;;;9.30;3.60;;;;;;;2.49;90.05;100660.41;104858;1275;75574;-66
2022/04/18 05:32:54;;;;;;;8.80;3.30;;;;;;;2.64;89.89;100656.77;104475;1275;67725;-63
2022/04/18 05:35:42;;;;;;;8.80;3.00;;;;;;;2.83;89.75;100660.27;104607;1274;75024;-65
2022/04/18 05:38:32;;;;;;;7.00;2.20;;;;;;;2.99;89.00;100655.67;104555;1274;60548;-64
2022/04/18 05:41:25;;;;;;;13.40;4.20;;;;;;;3.25;88.13;100660.69;104855;1275;60475;-67
2022/04/18 05:44:13;;;;;;;13.20;3.60;;;;;;;3.59;87.29;100662.02;104460;1274;74751;-65
2022/04/18 05:47:09;;;;;;;12.10;3.40;;;;;;;4.50;84.88;100658.10;104653;1274;68800;-65
2022/04/18 05:49:58;;;;;;;10.60;3.00;;;;;;;6.03;81.27;100652.86;104573;1274;73393;-66
2022/04/18 05:52:49;;;;;;;8.40;2.70;;;;;;;7.65;75.84;100651.64;104416;1274;60480;-64
2022/04/18 05:56:10;;;;;;;7.80;2.60;;;;;;;9.59;70.46;100643.78;104676;1274;62057;-66
2022/04/18 05:59:13;;;;;;;6.70;2.30;;;;;;;11.28;64.33;100643.74;105026;1274;74769;-64
2022/04/18 06:02:23;;;;;;;7.70;2.40;;;;;;;12.88;58.64;100641.30;104722;1275;68973;-66
2022/04/18 06:05:19;;;;;;;8.20;2.60;;;;;;;14.16;53.73;100633.52;104652;1274;73818;-71
2022/04/18 06:08:18;;;;;;;7.90;2.20;;;;;;;15.47;49.97;100633.05;104621;1274;60553;-68
2022/04/18 06:11:17;;;;;;;6.20;2.00;;;;;;;16.75;46.64;100623.46;104846;1274;61311;-64
2022/04/18 06:14:18;;;;;;;8.70;2.30;;;;;;;17.87;43.14;100616.22;104886;1275;73028;-66
2022/04/18 06:17:07;;;;;;;7.90;2.20;;;;;;;18.96;40.15;100611.16;104678;1274;69116;-65
2022/04/18 06:19:55;;;;;;;6.70;2.00;;;;;;;19.91;37.12;100613.10;104579;1275;73693;-67
2022/04/18 06:22:43;;;;;;;7.00;2.00;;;;;;;21.00;34.56;100606.36;104536;1274;60599;-68
2022/04/18 06:25:31;;;;;;;6.10;1.90;;;;;;;21.91;32.60;100597.61;104602;1274;61837;-67
2022/04/18 06:28:19;;;;;;;6.50;1.90;;;;;;;22.56;30.15;100595.01;104861;1274;74723;-69
2022/04/18 06:31:07;;;;;;;6.10;1.70;;;;;;;23.13;28.80;100592.79;104499;1275;68834;-69
2022/04/18 06:34:01;;;;;;;6.20;1.60;;;;;;;23.87;28.08;100599.08;105496;1274;74459;-67
2022/04/18 06:36:49;;;;;;;6.60;1.80;;;;;;;24.38;26.87;100595.14;104964;1274;61240;-66
2022/04/18 06:39:52;;;;;;;6.00;2.00;;;;;;;24.87;25.86;100592.61;104701;1275;60581;-67
2022/04/18 06:42:50;;;;;;;5.80;1.90;;;;;;;25.38;24.51;100589.18;104840;1274;75118;-65
2022/04/18 06:45:43;;;;;;;6.20;1.90;;;;;;;25.57;23.55;100586.44;104538;1275;68404;-68
2022/04/18 06:48:32;;;;;;;6.00;2.00;;;;;;;25.71;22.62;100584.20;104646;1274;74135;-66
2022/04/18 06:51:39;;;;;;;6.70;2.20;;;;;;;26.00;22.10;100587.02;104817;1274;60523;-66
2022/04/18 06:54:46;;;;;;;7.40;2.40;;;;;;;26.35;21.07;100585.16;105156;1272;60438;-65
2022/04/18 06:57:35;;;;;;;6.60;2.40;;;;;;;26.35;19.83;100582.73;104655;1274;73342;-68
2022/04/18 07:00:30;;;;;;;6.30;2.30;;;;;;;26.34;19.28;100587.00;104838;1272;69469;-67
2022/04/18 07:03:19;;;;;;;7.00;2.70;;;;;;;26.28;19.59;100586.38;104682;1273;74215;-67
2022/04/18 07:06:08;;;;;;;6.70;2.20;;;;;;;26.18;18.90;100586.45;104310;1275;60701;-65
2022/04/18 07:08:56;;;;;;;6.50;2.40;;;;;;;26.07;19.41;100587.29;104721;1276;61957;-64
2022/04/18 07:12:06;;;;;;;7.20;2.70;;;;;;;26.22;18.85;100589.65;104822;1276;74488;-65
2022/04/18 07:14:56;;;;;;;8.40;3.00;;;;;;;26.47;18.97;100588.59;104543;1275;68127;-64
2022/04/18 07:17:44;;;;;;;7.40;2.60;;;;;;;26.75;18.40;100585.70;104423;1279;74490;-63
2022/04/18 07:20:33;;;;;;;6.80;2.70;;;;;;;26.91;17.89;100583.31;104265;1275;60545;-64
2022/04/18 07:23:21;;;;;;;6.80;2.30;;;;;;;26.97;17.91;100585.27;104418;1276;61917;-67
2022/04/18 07:26:14;;;;;;;6.90;2.70;;;;;;;26.98;17.81;100587.41;104571;1276;74684;-63
2022/04/18 07:29:03;;;;;;;7.90;3.20;;;;;;;27.08;16.86;100579.73;104456;1278;67264;-64
2022/04/18 07:31:51;;;;;;;7.10;2.90;;;;;;;27.06;16.49;100581.84;104412;1278;73437;-65
2022/04/18 07:34:39;;;;;;;9.40;3.90;;;;;;;26.95;16.41;100580.92;104538;1276;60751;-64
2022/04/18 07:37:31;;;;;;;7.20;3.30;;;;;;;27.01;16.29;100577.06;104701;1275;60880;-65
2022/04/18 07:40:19;;;;;;;7.60;3.40;;;;;;;26.91;16.33;100578.27;104627;1274;73015;-64
2022/04/18 07:43:09;;;;;;;6.90;2.90;;;;;;;26.83;16.48;100579.77;104600;1274;68609;-63
2022/04/18 07:45:56;;;;;;;7.90;3.40;;;;;;;26.74;16.92;100578.95;104663;1275;72792;-65
2022/04/18 07:48:48;;;;;;;8.50;3.80;;;;;;;26.89;16.84;100576.77;104662;1274;60363;-64
2022/04/18 07:51:40;;;;;;;8.40;3.90;;;;;;;26.93;16.70;100573.86;104586;1274;61823;-65
2022/04/18 07:54:52;;;;;;;7.70;3.90;;;;;;;27.04;16.20;100573.70;104494;1274;74460;-68
2022/04/18 07:57:42;;;;;;;10.20;4.20;;;;;;;26.98;15.69;100576.75;104574;1275;69756;-64
2022/04/18 08:00:33;;;;;;;8.50;4.40;;;;;;;26.96;15.69;100574.40;104556;1275;74544;-66
2022/04/18 08:03:21;;;;;;;8.40;4.70;;;;;;;26.85;15.41;100578.88;104655;1275;60909;-65
2022/04/18 08:06:13;;;;;;;9.10;4.80;;;;;;;26.84;14.97;100581.28;104560;1275;60583;-66
2022/04/18 08:09:20;;;;;;;8.70;4.90;;;;;;;26.90;14.94;100573.07;104845;1274;73051;-61
2022/04/18 08:12:12;;;;;;;8.10;3.70;;;;;;;26.64;14.97;100577.13;104621;1274;68392;-65
2022/04/18 08:15:20;;;;;;;9.00;4.60;;;;;;;26.63;14.99;100573.54;104850;1274;70642;-63
2022/04/18 08:18:08;;;;;;;7.30;3.40;;;;;;;26.41;15.27;100576.64;104584;1275;60479;-66
2022/04/18 08:21:07;;;;;;;9.10;4.10;;;;;;;26.41;15.69;100569.88;104853;1274;60398;-62
2022/04/18 08:23:55;;;;;;;8.30;3.80;;;;;;;26.53;15.40;100566.23;104546;1275;75158;-67
2022/04/18 08:27:08;;;;;;;8.00;3.20;;;;;;;26.50;14.88;100558.07;104839;1274;69725;-64
2022/04/18 08:30:05;;;;;;;9.00;3.60;;;;;;;26.59;14.96;100554.27;104684;1274;71698;-66
2022/04/18 08:33:08;;;;;;;7.40;2.90;;;;;;;26.59;14.92;100559.43;104937;1274;60463;-66
2022/04/18 08:35:58;;;;;;;8.40;3.00;;;;;;;26.48;15.35;100558.70;104628;1274;60538;-66
2022/04/18 08:38:45;;;;;;;10.30;3.70;;;;;;;26.56;15.35;100556.13;104777;1275;74694;-65
2022/04/18 08:41:50;;;;;;;7.20;3.40;;;;;;;26.71;15.00;100554.97;104803;1274;69533;-66
2022/04/18 08:44:43;;;;;;;8.50;3.40;;;;;;;26.72;14.38;100551.70;104573;1274;74438;-64
2022/04/18 08:53:50;;;;;;;6.70;2.90;;;;;;;26.33;13.92;100540.22;104529;1275;74787;-63
2022/04/18 08:56:38;;;;;;;7.40;3.10;;;;;;;26.37;14.26;100537.70;104774;1274;68973;-64
2022/04/18 08:59:27;;;;;;;7.20;3.20;;;;;;;26.33;14.01;100538.20;104586;1274;73292;-64
2022/04/18 09:02:14;;;;;;;7.70;3.70;;;;;;;26.28;14.62;100535.98;104494;1274;60483;-63
2022/04/18 09:05:16;;;;;;;6.80;3.10;;;;;;;26.24;14.14;100538.84;104856;1275;61515;-63
2022/04/18 09:08:10;;;;;;;8.00;2.90;;;;;;;26.15;14.15;100530.88;104577;1274;73181;-63
2022/04/18 09:10:58;;;;;;;7.60;3.20;;;;;;;26.12;14.36;100535.83;104652;1275;68224;-65
2022/04/18 09:13:46;;;;;;;7.80;3.50;;;;;;;25.93;14.40;100531.02;104761;1275;72248;-62
2022/04/18 09:16:39;;;;;;;7.50;3.30;;;;;;;25.73;14.42;100531.59;104571;1274;60613;-61
2022/04/18 09:19:31;;;;;;;7.80;3.80;;;;;;;25.77;14.17;100529.15;104691;1274;60599;-64
2022/04/18 09:22:23;;;;;;;7.40;3.20;;;;;;;25.63;14.10;100525.33;104602;1275;75373;-65
2022/04/18 09:25:18;;;;;;;8.10;3.60;;;;;;;25.40;14.09;100526.33;104497;1275;68642;-62
2022/04/18 09:28:11;;;;;;;8.30;3.70;;;;;;;25.54;14.22;100519.95;105022;1274;73290;-65
2022/04/18 09:31:10;;;;;;;8.40;4.00;;;;;;;25.49;14.58;100512.10;104602;1275;60802;-63
2022/04/18 09:33:58;;;;;;;9.60;3.90;;;;;;;25.44;14.60;100504.41;104549;1276;61313;-61
2022/04/18 09:37:08;;;;;;;8.50;3.90;;;;;;;25.39;14.57;100505.80;104651;1274;74218;-63
2022/04/18 09:39:57;;;;;;;8.90;4.10;;;;;;;25.46;14.35;100500.35;104788;1275;68426;-61
2022/04/18 09:42:45;;;;;;;7.80;3.70;;;;;;;25.32;14.09;100498.39;104864;1275;73123;-64
2022/04/18 09:45:45;;;;;;;8.40;4.30;;;;;;;25.27;14.20;100493.64;104506;1275;60597;-63
2022/04/18 09:48:34;;;;;;;8.00;3.30;;;;;;;25.28;14.36;100490.66;104620;1275;60543;-63
2022/04/18 09:51:26;;;;;;;8.00;3.80;;;;;;;25.50;14.69;100487.59;104599;1275;74836;-62
2022/04/18 09:54:24;;;;;;;9.10;3.90;;;;;;;25.48;14.22;100485.31;104527;1275;66863;-62
2022/04/18 09:57:12;;;;;;;8.60;4.00;;;;;;;25.54;14.53;100482.86;104514;1275;74348;-62
2022/04/18 10:00:00;;;;;;;8.30;4.10;;;;;;;25.61;14.97;100479.09;104531;1275;60596;-66
2022/04/18 10:03:00;;;;;;;8.80;3.80;;;;;;;25.92;14.57;100473.73;104829;1274;60584;-63
2022/04/18 10:05:50;;;;;;;8.60;3.80;;;;;;;26.12;14.25;100472.73;104753;1274;74433;-63
2022/04/18 10:08:39;;;;;;;7.90;3.90;;;;;;;26.32;13.90;100466.48;104639;1274;68815;-62
2022/04/18 10:11:28;;;;;;;8.90;4.30;;;;;;;26.31;14.01;100464.48;104618;1274;73783;-63
2022/04/18 10:14:17;;;;;;;7.60;3.60;;;;;;;26.32;13.80;100461.39;104577;1274;60523;-63
2022/04/18 10:17:10;;;;;;;8.20;4.00;;;;;;;26.08;13.76;100461.06;104647;1274;60385;-62
2022/04/18 10:20:27;;;;;;;8.30;4.20;;;;;;;25.92;14.27;100463.45;104559;1274;74597;-62
2022/04/18 10:23:33;;;;;;;8.50;4.20;;;;;;;25.87;14.00;100459.30;104803;1274;68751;-62
2022/04/18 10:26:47;;;;;;;8.70;4.00;;;;;;;25.88;14.28;100455.77;104840;1274;73405;-64
2022/04/18 10:29:49;;;;;;;8.20;3.90;;;;;;;25.92;14.19;100452.63;104784;1274;60572;-64
2022/04/18 10:32:38;;;;;;;9.30;4.40;;;;;;;25.78;14.07;100457.29;104657;1275;60501;-65
2022/04/18 10:35:25;;;;;;;8.10;4.20;;;;;;;25.40;14.12;100454.59;104537;1274;75174;-61
2022/04/18 10:38:13;;;;;;;9.30;4.30;;;;;;;25.10;14.08;100453.12;104589;1274;69002;-62
2022/04/18 10:41:18;;;;;;;8.30;4.30;;;;;;;24.79;14.86;100454.71;104475;1274;73562;-63
2022/04/18 10:44:08;;;;;;;9.80;4.90;;;;;;;24.70;14.61;100445.91;104800;1274;60599;-64
2022/04/18 10:47:05;;;;;;;9.70;4.30;;;;;;;24.65;14.78;100447.11;104707;1274;60483;-63
2022/04/18 10:50:19;;;;;;;8.10;4.20;;;;;;;24.53;14.94;100442.34;104721;1275;74549;-62
2022/04/18 10:53:10;;;;;;;8.40;3.70;;;;;;;24.51;14.85;100441.20;104994;1275;68210;-64
2022/04/18 10:55:59;;;;;;;8.50;3.80;;;;;;;24.70;14.66;100435.08;105019;1274;73282;-64
2022/04/18 10:58:49;;;;;;;8.90;4.20;;;;;;;24.74;14.47;100431.62;104631;1275;60571;-65
2022/04/18 11:01:38;;;;;;;10.10;4.20;;;;;;;24.61;14.93;100427.16;104654;1274;60354;-65
2022/04/18 11:04:39;;;;;;;8.10;4.00;;;;;;;24.15;14.66;100431.64;104860;1274;74422;-66
2022/04/18 11:07:43;;;;;;;7.80;3.90;;;;;;;24.12;15.26;100425.50;104875;1274;68488;-65
2022/04/18 11:10:38;;;;;;;8.70;4.40;;;;;;;24.01;15.08;100424.55;104552;1274;72591;-65
2022/04/18 11:13:26;;;;;;;8.90;4.30;;;;;;;24.08;15.26;100419.63;104558;1274;60500;-66
2022/04/18 11:16:24;;;;;;;8.90;4.70;;;;;;;24.09;14.67;100416.13;104608;1274;60797;-66
2022/04/18 11:19:15;;;;;;;8.80;4.90;;;;;;;24.03;15.36;100410.39;104637;1274;73487;-67
2022/04/18 11:22:14;;;;;;;8.80;4.70;;;;;;;23.86;15.19;100414.58;104708;1274;67119;-64
2022/04/18 11:25:10;;;;;;;7.50;3.60;;;;;;;23.31;15.15;100413.89;104502;1275;72192;-65
2022/04/18 11:28:02;;;;;;;7.70;3.70;;;;;;;22.82;15.83;100414.73;104550;1275;60783;-67
2022/04/18 11:30:50;;;;;;;8.30;3.80;;;;;;;22.37;15.78;100407.56;104551;1275;60961;-63
2022/04/18 11:33:42;;;;;;;7.70;3.60;;;;;;;21.70;16.62;100404.33;104545;1274;73219;-62
2022/04/18 11:36:33;;;;;;;7.50;3.80;;;;;;;21.44;16.82;100410.61;104623;1274;68660;-64
2022/04/18 11:39:21;;;;;;;8.80;3.70;;;;;;;21.15;17.19;100405.70;104651;1275;73270;-67
2022/04/18 11:42:15;;;;;;;8.80;3.60;;;;;;;20.84;17.78;100405.12;105261;1274;60463;-65
2022/04/18 11:45:10;;;;;;;8.70;4.20;;;;;;;20.51;18.06;100404.18;105027;1274;60336;-66
2022/04/18 11:47:58;;;;;;;8.70;4.30;;;;;;;19.99;18.48;100404.27;104783;1274;74728;-68
2022/04/18 11:50:45;;;;;;;8.60;3.60;;;;;;;19.70;18.74;100396.17;104705;1274;67077;-66
2022/04/18 11:53:38;;;;;;;9.30;3.20;;;;;;;19.48;19.31;100399.52;104936;1274;73725;-72
2022/04/18 11:56:25;;;;;;;8.60;3.30;;;;;;;19.19;19.46;100393.45;104836;1276;60515;-69
2022/04/18 11:59:13;;;;;;;9.10;3.90;;;;;;;18.90;19.17;100394.65;104921;1275;60565;-67
2022/04/18 12:08:31;;;;;;;10.70;4.10;;;;;;;16.69;21.56;100381.70;104680;1275;71359;-64
2022/04/18 12:11:34;;;;;;;7.80;3.70;;;;;;;15.88;22.69;100383.88;104707;1275;60370;-71
2022/04/18 12:14:22;;;;;;;9.40;3.80;;;;;;;15.47;23.58;100387.88;104731;1275;61981;-72
2022/04/18 12:17:10;;;;;;;8.10;3.70;;;;;;;15.05;24.06;100388.71;105138;1274;75445;-74
2022/04/18 12:19:58;;;;;;;9.00;4.20;;;;;;;14.66;24.80;100391.86;105122;1274;68271;-70
2022/04/18 12:22:52;;;;;;;8.90;4.20;;;;;;;14.25;25.29;100385.31;104780;1275;73565;-68
2022/04/18 12:25:45;;;;;;;8.70;4.00;;;;;;;13.94;25.68;100379.42;104620;1275;60494;-66
2022/04/18 12:28:33;;;;;;;9.10;3.90;;;;;;;13.72;25.54;100375.54;104955;1274;60484;-68
2022/04/18 12:31:22;;;;;;;9.80;4.10;;;;;;;13.45;26.24;100369.84;104690;1274;74627;-67
2022/04/18 12:34:21;;;;;;;8.50;4.20;;;;;;;13.30;26.49;100363.45;104726;1274;67787;-68
2022/04/18 12:37:12;;;;;;;9.60;4.30;;;;;;;13.23;27.19;100358.34;104984;1274;75262;-64
2022/04/18 12:40:17;;;;;;;9.70;3.90;;;;;;;13.15;27.02;100354.00;104621;1274;60567;-65
2022/04/18 12:43:08;;;;;;;9.40;3.90;;;;;;;12.99;27.28;100351.98;104843;1274;60395;-69
2022/04/18 12:46:06;;;;;;;9.00;4.40;;;;;;;12.91;27.82;100348.27;104776;1275;74484;-67
2022/04/18 12:48:54;;;;;;;8.90;4.20;;;;;;;12.86;28.43;100344.50;104912;1274;68874;-69
2022/04/18 12:51:49;;;;;;;8.30;3.90;;;;;;;12.81;28.19;100341.49;105181;1274;73554;-64
2022/04/18 12:54:45;;;;;;;9.20;3.60;;;;;;;12.66;27.71;100332.61;104810;1274;60574;-68
2022/04/18 12:57:38;;;;;;;10.20;4.30;;;;;;;12.54;28.66;100327.65;104603;1275;61005;-67
2022/04/18 13:00:37;;;;;;;9.10;4.50;;;;;;;12.35;28.49;100321.04;104751;1274;75117;-66
2022/04/18 13:03:27;;;;;;;9.60;4.20;;;;;;;12.22;29.20;100319.02;104825;1274;68584;-71
2022/04/18 13:06:22;;;;;;;9.80;4.50;;;;;;;12.14;28.77;100313.96;104929;1274;73456;-69
2022/04/18 13:09:10;;;;;;;12.40;5.00;;;;;;;12.01;29.47;100312.73;104924;1274;60531;-67
2022/04/18 13:12:07;;;;;;;9.40;4.40;;;;;;;11.97;29.64;100309.47;104740;1274;60356;-66
2022/04/18 13:15:05;;;;;;;10.60;4.60;;;;;;;11.89;29.97;100305.30;105027;1274;74509;-65
2022/04/18 13:18:10;;;;;;;13.50;5.10;;;;;;;11.82;30.04;100302.11;104831;1274;69590;-67
2022/04/18 13:20:58;;;;;;;10.60;4.80;;;;;;;11.65;29.97;100298.61;103943;1274;1003546;-65
2022/04/18 13:23:46;;;;;;;10.00;4.40;;;;;;;11.63;30.43;100297.77;105020;1274;61141;-67
2022/04/18 13:26:35;;;;;;;10.30;4.50;;;;;;;11.62;30.25;100294.27;104998;1274;60405;-68
2022/04/18 13:29:26;;;;;;;11.40;5.10;;;;;;;11.51;30.83;100292.81;104905;1274;75744;-64
2022/04/18 13:32:14;;;;;;;11.30;4.70;;;;;;;11.52;30.74;100292.73;104729;1274;66501;-64